Time;durP1;ratioP1;P1;durP2;ratioP2;P2;SDS_P1;SDS_P2;PMS_P1;PMS_P2;Temp;Humidity;BMP_temperature;BMP_pressure;BME280_temperature;BME280_humidity;BME280_pressure;Samples;Min_cycle;Max_cycle;Signal;HPM_P1;HPM_P2
2022/03/19 00:00:59;;;;;;;26.33;14.33;;;7.40;75.50;;;;;;5027453;28;20246;-68
2022/03/19 00:03:27;;;;;;;23.37;14.47;;;7.40;75.50;;;;;;4998386;28;20223;-68
2022/03/19 00:05:55;;;;;;;22.23;14.73;;;7.50;75.70;;;;;;5009208;28;20634;-68
2022/03/19 00:08:23;;;;;;;21.03;14.13;;;7.50;76.00;;;;;;5023288;28;20219;-68
2022/03/19 00:10:51;;;;;;;21.47;13.27;;;7.40;75.90;;;;;;5004952;28;20223;-68
2022/03/19 00:13:18;;;;;;;24.83;14.77;;;7.40;76.50;;;;;;5024803;28;20211;-68
2022/03/19 00:15:45;;;;;;;22.90;13.80;;;7.40;75.80;;;;;;5028621;28;20202;-68
2022/03/19 00:18:13;;;;;;;22.50;12.93;;;7.40;75.30;;;;;;5030141;28;20210;-68
2022/03/19 00:20:41;;;;;;;24.53;13.93;;;7.30;74.90;;;;;;5027231;28;20206;-68
2022/03/19 00:23:08;;;;;;;23.57;13.80;;;7.20;75.10;;;;;;5019077;28;20233;-68
2022/03/19 00:25:35;;;;;;;21.43;14.07;;;7.20;75.60;;;;;;5013859;28;20282;-68
2022/03/19 00:28:02;;;;;;;23.47;13.50;;;7.10;75.80;;;;;;5016367;28;20227;-68
2022/03/19 00:30:30;;;;;;;22.73;12.33;;;7.10;76.00;;;;;;5022641;28;20510;-68
2022/03/19 00:32:57;;;;;;;20.10;13.37;;;7.00;76.10;;;;;;5032211;28;20218;-68
2022/03/19 00:35:24;;;;;;;25.30;14.50;;;7.00;76.40;;;;;;5028768;28;20203;-68
2022/03/19 00:37:53;;;;;;;25.33;13.10;;;6.90;76.50;;;;;;5020544;28;20219;-68
2022/03/19 00:40:22;;;;;;;24.60;13.67;;;6.90;76.80;;;;;;5023894;28;20214;-68
2022/03/19 00:42:50;;;;;;;20.53;13.23;;;6.80;77.30;;;;;;5022141;28;20217;-68
2022/03/19 00:45:17;;;;;;;24.93;14.87;;;6.80;77.50;;;;;;5026256;28;20218;-68
2022/03/19 00:47:44;;;;;;;23.73;14.60;;;6.70;77.50;;;;;;5025707;28;20221;-68
2022/03/19 00:50:13;;;;;;;27.07;13.47;;;6.70;77.80;;;;;;5012321;28;20217;-68
2022/03/19 00:52:40;;;;;;;28.60;13.57;;;6.70;78.20;;;;;;5014069;28;20532;-68
2022/03/19 00:55:09;;;;;;;23.50;14.47;;;6.70;78.20;;;;;;5033052;28;20651;-68
2022/03/19 00:57:46;;;;;;;30.60;15.90;;;6.70;78.30;;;;;;5016291;28;20198;-68
2022/03/19 01:00:18;;;;;;;27.77;14.90;;;6.70;78.40;;;;;;5018988;28;20528;-68
2022/03/19 01:02:46;;;;;;;24.07;14.43;;;6.70;78.50;;;;;;5016806;28;20211;-68
2022/03/19 01:05:14;;;;;;;28.40;16.30;;;6.60;78.80;;;;;;5013016;28;20237;-68
2022/03/19 01:07:47;;;;;;;23.70;14.03;;;6.60;79.00;;;;;;5025425;28;20248;-68
2022/03/19 01:10:20;;;;;;;23.43;14.73;;;6.60;79.10;;;;;;5022199;28;20218;-68
2022/03/19 01:12:49;;;;;;;24.20;14.20;;;6.60;79.10;;;;;;5022298;28;20207;-68
2022/03/19 01:15:16;;;;;;;23.90;13.23;;;6.70;79.00;;;;;;5024784;28;20203;-68
2022/03/19 01:17:43;;;;;;;23.60;13.87;;;6.70;78.90;;;;;;5022975;28;20210;-68
2022/03/19 01:20:12;;;;;;;24.37;15.13;;;6.70;78.80;;;;;;5021350;28;20222;-68
2022/03/19 01:22:42;;;;;;;24.50;14.30;;;6.80;78.70;;;;;;5028412;28;20636;-68
2022/03/19 01:25:10;;;;;;;33.53;15.77;;;6.70;78.40;;;;;;5018726;28;20218;-68
2022/03/19 01:27:40;;;;;;;19.63;13.07;;;6.80;78.30;;;;;;5015385;28;20218;-68
2022/03/19 01:30:08;;;;;;;18.13;12.53;;;6.70;78.20;;;;;;5015367;28;20207;-68
2022/03/19 01:32:35;;;;;;;20.40;13.30;;;6.70;78.30;;;;;;4998949;28;20214;-68
2022/03/19 01:35:02;;;;;;;25.07;13.90;;;6.70;78.30;;;;;;5029909;28;20204;-68
2022/03/19 01:37:30;;;;;;;22.10;12.83;;;6.60;78.10;;;;;;5022336;28;20294;-68
2022/03/19 01:39:58;;;;;;;26.83;13.33;;;6.60;78.10;;;;;;5020639;28;20561;-68
2022/03/19 01:42:26;;;;;;;26.53;13.60;;;6.50;78.10;;;;;;5026763;28;20214;-68
2022/03/19 01:44:54;;;;;;;25.60;12.57;;;6.40;78.40;;;;;;5023166;28;20225;-68
2022/03/19 01:47:23;;;;;;;24.90;14.60;;;6.40;78.70;;;;;;5022385;28;20228;-68
2022/03/19 01:49:50;;;;;;;23.80;13.70;;;6.30;79.30;;;;;;5022611;28;20298;-68
2022/03/19 01:52:17;;;;;;;25.00;14.23;;;6.20;78.90;;;;;;5018169;28;20214;-68
2022/03/19 01:54:47;;;;;;;26.53;15.00;;;6.20;79.00;;;;;;5001461;28;20717;-68
2022/03/19 01:57:17;;;;;;;23.83;13.60;;;6.10;79.20;;;;;;5017513;28;20237;-68
2022/03/19 01:59:44;;;;;;;21.63;13.30;;;6.10;79.60;;;;;;5012045;28;20211;-68
2022/03/19 02:02:13;;;;;;;21.47;12.70;;;6.00;79.70;;;;;;5033725;28;20246;-68
2022/03/19 02:04:42;;;;;;;23.43;13.50;;;6.00;80.00;;;;;;5028453;28;20215;-68
2022/03/19 02:07:11;;;;;;;20.47;13.87;;;5.90;80.20;;;;;;5019550;28;20226;-68
2022/03/19 02:09:39;;;;;;;28.87;14.07;;;5.90;80.50;;;;;;5016571;28;20717;-68
2022/03/19 02:12:07;;;;;;;22.43;14.03;;;5.80;80.70;;;;;;5003419;28;20214;-68
2022/03/19 02:14:36;;;;;;;24.83;13.73;;;5.80;81.00;;;;;;5024663;28;20625;-68
2022/03/19 02:17:04;;;;;;;20.83;12.93;;;5.80;80.70;;;;;;5008784;28;20636;-68
2022/03/19 02:19:32;;;;;;;22.10;13.40;;;5.80;80.70;;;;;;5009380;28;20214;-68
2022/03/19 02:22:00;;;;;;;22.30;13.90;;;5.80;80.90;;;;;;5029501;28;20216;-68
2022/03/19 02:27:13;;;;;;;24.63;12.90;;;5.80;81.00;;;;;;5034125;28;20217;-68
2022/03/19 02:29:40;;;;;;;17.83;12.90;;;5.80;81.00;;;;;;5029437;28;20257;-68
2022/03/19 02:32:08;;;;;;;23.17;12.63;;;5.80;80.70;;;;;;5022691;28;20201;-68
2022/03/19 02:34:35;;;;;;;23.90;12.73;;;5.90;80.80;;;;;;5005887;28;20275;-68
2022/03/19 02:37:02;;;;;;;20.43;13.50;;;5.90;80.40;;;;;;5035061;28;20230;-68
2022/03/19 02:39:33;;;;;;;23.73;13.30;;;5.90;80.20;;;;;;5028626;28;20278;-68
2022/03/19 02:42:03;;;;;;;22.93;13.57;;;5.80;80.10;;;;;;5026350;28;20201;-68
2022/03/19 02:44:30;;;;;;;22.57;14.23;;;5.90;80.00;;;;;;5026717;28;20629;-68
2022/03/19 02:46:59;;;;;;;21.10;13.13;;;5.90;80.00;;;;;;5010254;28;20207;-68
2022/03/19 02:49:26;;;;;;;21.47;13.30;;;5.90;79.90;;;;;;5024282;28;20225;-68
2022/03/19 02:51:54;;;;;;;29.27;12.33;;;5.90;80.00;;;;;;5026960;28;20198;-68
2022/03/19 02:54:30;;;;;;;27.53;12.47;;;5.90;80.10;;;;;;5031187;28;20207;-68
2022/03/19 02:56:59;;;;;;;22.17;13.20;;;5.90;80.00;;;;;;5031007;28;20267;-68
2022/03/19 02:59:29;;;;;;;22.07;12.17;;;5.90;79.80;;;;;;5003720;28;20217;-68
2022/03/19 03:01:59;;;;;;;20.03;12.47;;;5.90;79.60;;;;;;5035940;28;20240;-68
2022/03/19 03:04:28;;;;;;;22.47;12.83;;;5.90;79.40;;;;;;5023818;28;20217;-68
2022/03/19 03:07:03;;;;;;;28.30;12.83;;;5.90;79.40;;;;;;5016387;28;20213;-68
2022/03/19 03:09:31;;;;;;;24.63;13.27;;;5.90;79.40;;;;;;5019812;28;20238;-68
2022/03/19 03:12:01;;;;;;;24.10;13.03;;;5.90;79.40;;;;;;5024943;28;20214;-68
2022/03/19 03:14:29;;;;;;;21.43;12.03;;;5.90;79.20;;;;;;5023873;28;20286;-68
2022/03/19 03:17:00;;;;;;;23.80;12.93;;;5.90;79.00;;;;;;5025247;28;20204;-68
2022/03/19 03:19:32;;;;;;;23.87;13.37;;;5.90;79.00;;;;;;5026215;28;20216;-68
2022/03/19 03:21:59;;;;;;;21.53;13.80;;;5.90;79.20;;;;;;5025749;28;20206;-68
2022/03/19 03:24:26;;;;;;;23.00;13.57;;;5.80;79.00;;;;;;5030601;28;20213;-68
2022/03/19 03:26:53;;;;;;;23.50;12.20;;;5.70;79.00;;;;;;5026351;28;20206;-68
2022/03/19 03:29:20;;;;;;;28.60;13.17;;;5.70;79.20;;;;;;5030466;28;20235;-68
2022/03/19 03:31:48;;;;;;;23.70;12.53;;;5.60;79.40;;;;;;5011678;28;20194;-68
2022/03/19 03:34:15;;;;;;;26.27;13.23;;;5.60;79.60;;;;;;5020878;28;20206;-68
2022/03/19 03:36:42;;;;;;;28.97;13.07;;;5.60;79.40;;;;;;4997075;28;20203;-68
2022/03/19 03:39:09;;;;;;;27.60;12.90;;;5.50;79.50;;;;;;5018393;28;20212;-68
2022/03/19 03:41:37;;;;;;;22.23;13.47;;;5.50;79.80;;;;;;5021903;28;20258;-68
2022/03/19 03:44:04;;;;;;;19.80;12.97;;;5.50;80.00;;;;;;5030299;28;20206;-68
2022/03/19 03:46:31;;;;;;;22.87;12.70;;;5.40;79.90;;;;;;5004950;28;20221;-68
2022/03/19 03:48:58;;;;;;;22.50;13.87;;;5.40;79.90;;;;;;5015418;28;20260;-68
2022/03/19 03:51:25;;;;;;;25.13;14.20;;;5.40;80.10;;;;;;5029025;28;20215;-68
2022/03/19 03:53:52;;;;;;;22.07;14.60;;;5.40;80.30;;;;;;5029968;28;20202;-68
2022/03/19 03:56:20;;;;;;;22.37;14.50;;;5.40;80.10;;;;;;5013815;28;20210;-68
2022/03/19 03:58:47;;;;;;;26.27;13.27;;;5.40;79.80;;;;;;5031970;28;20298;-68
2022/03/19 04:01:14;;;;;;;25.20;13.70;;;5.40;79.60;;;;;;5029332;28;20300;-68
2022/03/19 04:03:41;;;;;;;19.70;13.97;;;5.30;79.60;;;;;;5006443;28;20635;-68
2022/03/19 04:06:08;;;;;;;24.67;15.33;;;5.40;79.70;;;;;;5022111;28;20212;-68
2022/03/19 04:08:35;;;;;;;22.90;13.93;;;5.30;79.80;;;;;;5022035;28;20218;-68
2022/03/19 04:11:02;;;;;;;24.97;14.60;;;5.30;79.80;;;;;;5024030;28;20205;-68
2022/03/19 04:13:29;;;;;;;27.00;14.33;;;5.30;79.90;;;;;;5007653;28;20280;-68
2022/03/19 04:15:57;;;;;;;25.07;13.90;;;5.30;79.90;;;;;;5027153;28;20270;-68
2022/03/19 04:18:24;;;;;;;23.80;14.37;;;5.30;79.90;;;;;;5011558;28;20538;-68
2022/03/19 04:20:51;;;;;;;21.43;14.60;;;5.30;79.80;;;;;;5013974;28;20297;-68
2022/03/19 04:23:18;;;;;;;22.83;13.40;;;5.20;79.50;;;;;;5025651;28;20222;-68
2022/03/19 04:25:45;;;;;;;22.60;13.33;;;5.20;79.60;;;;;;5024008;28;20275;-68
2022/03/19 04:28:12;;;;;;;21.57;13.13;;;5.20;79.50;;;;;;5024920;28;20229;-68
2022/03/19 04:30:41;;;;;;;29.07;13.53;;;5.10;79.40;;;;;;5025122;28;20517;-68
2022/03/19 04:33:08;;;;;;;28.20;14.20;;;5.10;79.60;;;;;;5018660;28;20199;-68
2022/03/19 04:38:23;;;;;;;25.17;14.83;;;5.10;79.80;;;;;;5016566;28;20210;-68
2022/03/19 04:40:51;;;;;;;26.13;15.70;;;5.10;79.80;;;;;;4999501;28;20669;-68
2022/03/19 04:43:19;;;;;;;22.57;15.63;;;5.10;79.80;;;;;;5021206;28;20209;-68
2022/03/19 04:45:47;;;;;;;22.87;15.53;;;5.00;79.80;;;;;;5028893;28;20558;-68
2022/03/19 04:48:14;;;;;;;26.87;15.37;;;5.00;79.80;;;;;;5022204;28;20225;-68
2022/03/19 04:50:43;;;;;;;27.43;14.33;;;5.00;79.90;;;;;;5027889;28;20211;-68
2022/03/19 04:53:11;;;;;;;20.93;13.57;;;4.90;79.60;;;;;;5024121;28;20288;-68
2022/03/19 04:55:39;;;;;;;27.80;13.90;;;4.90;79.50;;;;;;5024304;28;20201;-68
2022/03/19 04:58:08;;;;;;;22.90;14.50;;;4.90;79.70;;;;;;5023025;28;20635;-68
2022/03/19 05:00:36;;;;;;;26.30;15.17;;;4.90;79.70;;;;;;5020470;28;20248;-68
2022/03/19 05:03:05;;;;;;;27.87;14.50;;;4.80;79.40;;;;;;5019805;28;20212;-68
2022/03/19 05:05:33;;;;;;;22.87;14.50;;;4.80;79.30;;;;;;5017264;28;20265;-68
2022/03/19 05:08:00;;;;;;;23.27;15.43;;;4.80;79.40;;;;;;5027647;28;20229;-68
2022/03/19 05:13:13;;;;;;;24.70;14.23;;;4.80;79.40;;;;;;5031397;28;20207;-68
2022/03/19 05:15:40;;;;;;;22.13;15.10;;;4.80;79.50;;;;;;5027880;28;20210;-68
2022/03/19 05:18:07;;;;;;;22.30;13.97;;;4.70;79.60;;;;;;5020343;28;20212;-68
2022/03/19 05:20:35;;;;;;;24.17;14.87;;;4.70;79.70;;;;;;5020414;28;20216;-68
2022/03/19 05:23:04;;;;;;;22.97;14.23;;;4.70;79.60;;;;;;5021510;28;20636;-68
2022/03/19 05:25:31;;;;;;;19.13;12.63;;;4.70;79.60;;;;;;5024952;28;20933;-68
2022/03/19 05:27:58;;;;;;;24.00;12.20;;;4.70;79.20;;;;;;5023488;28;20201;-68
2022/03/19 05:30:25;;;;;;;20.37;11.77;;;4.60;78.50;;;;;;5021406;28;20271;-68
2022/03/19 05:32:53;;;;;;;20.97;11.90;;;4.60;77.50;;;;;;5020370;28;20197;-68
2022/03/19 05:35:21;;;;;;;28.47;14.57;;;4.50;77.30;;;;;;5018846;28;20202;-68
2022/03/19 05:37:49;;;;;;;29.17;14.60;;;4.50;77.50;;;;;;5018063;28;20241;-67
2022/03/19 05:40:17;;;;;;;26.17;14.40;;;4.40;78.00;;;;;;5012118;28;20270;-67
2022/03/19 05:42:44;;;;;;;22.23;14.20;;;4.40;78.40;;;;;;5014977;28;20578;-67
2022/03/19 05:45:14;;;;;;;20.57;13.80;;;4.50;78.60;;;;;;5019220;28;20311;-67
2022/03/19 05:47:43;;;;;;;22.53;14.50;;;4.50;78.50;;;;;;5006345;28;20216;-67
2022/03/19 05:50:11;;;;;;;24.90;15.30;;;4.60;78.50;;;;;;5005360;28;20228;-67
2022/03/19 05:52:39;;;;;;;23.43;14.83;;;4.60;78.30;;;;;;5027331;28;20210;-67
2022/03/19 05:55:08;;;;;;;30.30;14.67;;;4.60;78.10;;;;;;5025289;28;20200;-67
2022/03/19 05:57:35;;;;;;;23.77;14.10;;;4.70;78.20;;;;;;5023961;28;20323;-67
2022/03/19 06:00:04;;;;;;;31.53;15.03;;;4.80;78.30;;;;;;5006423;28;20330;-67
2022/03/19 06:02:43;;;;;;;37.57;16.00;;;5.00;78.00;;;;;;5018155;28;20246;-67
2022/03/19 06:05:16;;;;;;;28.57;15.23;;;5.20;77.40;;;;;;5018595;28;20213;-67
2022/03/19 06:07:43;;;;;;;41.67;15.60;;;5.50;76.70;;;;;;5017714;28;20221;-67
2022/03/19 06:10:10;;;;;;;31.13;15.40;;;5.70;76.20;;;;;;5014921;28;20223;-67
2022/03/19 06:12:37;;;;;;;33.20;15.90;;;5.90;76.00;;;;;;5001524;28;20215;-67
2022/03/19 06:15:05;;;;;;;31.00;15.83;;;6.10;75.30;;;;;;5015571;28;20210;-67
2022/03/19 06:17:32;;;;;;;32.27;14.47;;;6.40;74.50;;;;;;5007720;28;20707;-67
2022/03/19 06:19:59;;;;;;;28.80;14.53;;;6.70;73.50;;;;;;5015405;28;20217;-67
2022/03/19 06:22:26;;;;;;;31.13;14.90;;;7.00;72.30;;;;;;5020320;28;20211;-67
2022/03/19 06:24:53;;;;;;;41.90;16.80;;;7.20;71.10;;;;;;5022284;28;20270;-67
2022/03/19 06:27:20;;;;;;;26.53;17.07;;;7.30;70.80;;;;;;5019597;28;20211;-67
2022/03/19 06:29:47;;;;;;;22.70;14.10;;;7.40;70.90;;;;;;5022489;28;20230;-67
2022/03/19 06:32:16;;;;;;;25.57;15.90;;;7.50;70.60;;;;;;5020699;28;20214;-67
2022/03/19 06:34:44;;;;;;;26.03;15.27;;;7.70;70.30;;;;;;5020249;28;20254;-67
2022/03/19 06:37:20;;;;;;;29.80;15.67;;;7.80;69.70;;;;;;5028211;28;20199;-67
2022/03/19 06:39:53;;;;;;;25.67;16.47;;;7.90;69.00;;;;;;5023086;28;20206;-67
2022/03/19 06:42:20;;;;;;;23.03;14.97;;;8.00;69.20;;;;;;5012216;28;20302;-67
2022/03/19 06:44:48;;;;;;;24.83;16.57;;;8.20;69.10;;;;;;5015080;28;20272;-67
2022/03/19 06:47:15;;;;;;;23.83;15.07;;;8.30;68.70;;;;;;5015920;28;20195;-67
2022/03/19 06:49:42;;;;;;;20.47;15.07;;;8.60;68.30;;;;;;5020599;28;20231;-67
2022/03/19 06:52:10;;;;;;;28.30;16.07;;;8.80;67.80;;;;;;5021910;28;20203;-67
2022/03/19 06:54:37;;;;;;;27.63;16.03;;;8.90;67.40;;;;;;5009333;28;20208;-67
2022/03/19 06:57:04;;;;;;;22.63;16.60;;;8.90;67.50;;;;;;5005407;28;20231;-67
2022/03/19 06:59:31;;;;;;;23.13;16.07;;;8.90;67.90;;;;;;5021053;28;20212;-67
2022/03/19 07:01:59;;;;;;;25.70;15.47;;;8.80;68.30;;;;;;5020647;28;20615;-67
2022/03/19 07:04:26;;;;;;;27.30;16.83;;;8.80;69.30;;;;;;5024643;28;20208;-67
2022/03/19 07:06:53;;;;;;;24.83;16.63;;;8.70;70.00;;;;;;5027210;28;20219;-67
2022/03/19 07:09:28;;;;;;;25.87;17.57;;;8.60;70.30;;;;;;5017604;28;20673;-67
2022/03/19 07:11:55;;;;;;;23.20;16.23;;;8.60;70.60;;;;;;5035118;28;20198;-67
2022/03/19 07:14:23;;;;;;;24.50;15.97;;;8.60;70.80;;;;;;5036623;28;20203;-67
2022/03/19 07:16:51;;;;;;;25.60;16.43;;;8.70;71.20;;;;;;5036042;28;20214;-67
2022/03/19 07:19:18;;;;;;;26.83;16.77;;;8.70;71.50;;;;;;5034721;28;20207;-67
2022/03/19 07:21:45;;;;;;;26.30;16.87;;;8.80;71.50;;;;;;5023798;28;20203;-67
2022/03/19 07:24:12;;;;;;;35.47;15.77;;;8.90;71.30;;;;;;5012658;28;20211;-67
2022/03/19 07:26:39;;;;;;;28.23;16.57;;;9.00;71.00;;;;;;5029193;28;20660;-67
2022/03/19 07:29:06;;;;;;;24.20;16.03;;;9.00;70.80;;;;;;5023712;28;20238;-67
2022/03/19 07:31:33;;;;;;;23.27;16.00;;;9.10;70.30;;;;;;5026211;28;20204;-67
2022/03/19 07:34:00;;;;;;;26.80;17.63;;;9.30;70.10;;;;;;5022597;28;20660;-67
2022/03/19 07:36:28;;;;;;;22.93;16.03;;;9.40;69.90;;;;;;5005756;28;20269;-67
2022/03/19 07:38:56;;;;;;;27.77;17.43;;;9.50;70.00;;;;;;5022667;28;20212;-67
2022/03/19 07:44:09;;;;;;;23.50;16.00;;;9.90;68.90;;;;;;5024473;28;20222;-67
2022/03/19 07:46:36;;;;;;;23.83;14.60;;;10.10;67.70;;;;;;5014026;28;20223;-67
2022/03/19 07:49:04;;;;;;;27.00;16.57;;;10.30;66.20;;;;;;5018237;28;20298;-67
2022/03/19 07:51:31;;;;;;;25.70;14.90;;;10.40;63.90;;;;;;5026213;28;20651;-67
2022/03/19 07:53:58;;;;;;;20.93;15.13;;;10.50;62.70;;;;;;5031956;28;20215;-67
2022/03/19 07:56:25;;;;;;;20.43;15.10;;;10.50;62.10;;;;;;5027277;28;20283;-67
2022/03/19 07:58:52;;;;;;;24.37;15.57;;;10.50;61.70;;;;;;5024456;28;20205;-67
2022/03/19 08:01:20;;;;;;;21.37;14.67;;;10.50;61.50;;;;;;5025325;28;20272;-67
2022/03/19 08:03:48;;;;;;;23.87;16.10;;;10.50;61.50;;;;;;5026295;28;20721;-67
2022/03/19 08:06:16;;;;;;;21.27;15.90;;;10.50;62.30;;;;;;5026651;28;20598;-67
2022/03/19 08:08:43;;;;;;;26.80;15.73;;;10.60;63.30;;;;;;5021878;28;20234;-67
2022/03/19 08:11:10;;;;;;;21.97;15.27;;;10.80;62.40;;;;;;5029366;28;20199;-67
2022/03/19 08:13:38;;;;;;;20.03;14.23;;;10.90;62.00;;;;;;5014930;28;20215;-67
2022/03/19 08:16:05;;;;;;;19.90;15.93;;;11.00;61.50;;;;;;5016974;28;20205;-67
2022/03/19 08:18:33;;;;;;;26.70;15.27;;;11.10;61.70;;;;;;5016092;28;20283;-67
2022/03/19 08:21:00;;;;;;;21.60;15.97;;;11.30;61.00;;;;;;5022816;28;20220;-67
2022/03/19 08:23:27;;;;;;;23.23;14.63;;;11.50;61.60;;;;;;5031447;28;20214;-67
2022/03/19 08:25:54;;;;;;;18.30;13.47;;;11.70;60.30;;;;;;4994875;28;20205;-67
2022/03/19 08:28:22;;;;;;;20.20;14.60;;;11.80;59.30;;;;;;5008156;28;20194;-67
2022/03/19 08:30:49;;;;;;;20.10;13.67;;;11.90;59.30;;;;;;5023330;28;20221;-67
2022/03/19 08:33:16;;;;;;;18.80;14.97;;;12.10;59.10;;;;;;5025267;28;20284;-67
2022/03/19 08:35:43;;;;;;;22.77;15.57;;;12.20;59.80;;;;;;5026745;28;20644;-67
2022/03/19 08:40:57;;;;;;;22.40;14.93;;;12.50;58.10;;;;;;5002657;28;20546;-67
2022/03/19 08:43:24;;;;;;;21.17;15.17;;;12.60;58.70;;;;;;5030603;28;20268;-67
2022/03/19 08:45:51;;;;;;;22.97;13.80;;;12.80;58.80;;;;;;5015617;28;20206;-67
2022/03/19 08:48:19;;;;;;;18.30;13.77;;;13.00;58.00;;;;;;5034169;28;20214;-67
2022/03/19 08:50:47;;;;;;;18.10;13.63;;;13.20;57.40;;;;;;5013783;28;20249;-67
2022/03/19 08:53:15;;;;;;;22.37;14.67;;;13.30;56.00;;;;;;5025533;28;20207;-67
2022/03/19 08:55:42;;;;;;;20.93;14.23;;;13.50;56.60;;;;;;5019830;28;20213;-67
2022/03/19 08:58:09;;;;;;;17.60;14.40;;;13.80;56.40;;;;;;5006753;28;20208;-67
2022/03/19 09:00:39;;;;;;;20.63;15.20;;;14.10;55.90;;;;;;5022121;28;20209;-67
2022/03/19 09:03:07;;;;;;;21.47;14.43;;;14.30;55.10;;;;;;5025081;28;20284;-67
2022/03/19 09:05:34;;;;;;;19.10;13.83;;;14.50;54.20;;;;;;5024562;28;20243;-67
2022/03/19 09:08:01;;;;;;;16.83;13.47;;;14.60;54.10;;;;;;5005813;28;20231;-67
2022/03/19 09:10:28;;;;;;;19.47;13.00;;;14.80;54.40;;;;;;5021230;28;20225;-67
2022/03/19 09:12:55;;;;;;;17.10;12.33;;;14.90;54.10;;;;;;5024540;28;20199;-67
2022/03/19 09:15:23;;;;;;;17.47;13.30;;;15.10;52.40;;;;;;5030212;28;20234;-67
2022/03/19 09:17:50;;;;;;;17.53;13.30;;;15.20;51.50;;;;;;5030321;28;20633;-67
2022/03/19 09:20:17;;;;;;;19.93;12.53;;;15.30;51.30;;;;;;4994896;28;20223;-67
2022/03/19 09:22:44;;;;;;;17.37;13.00;;;15.40;50.60;;;;;;5014546;28;20210;-67
2022/03/19 09:25:11;;;;;;;17.17;12.77;;;15.40;48.70;;;;;;5028562;28;20212;-67
2022/03/19 09:27:39;;;;;;;19.07;11.90;;;15.30;48.50;;;;;;5022323;28;20205;-67
2022/03/19 09:30:08;;;;;;;16.03;10.90;;;15.20;47.60;;;;;;5027607;28;20223;-67
2022/03/19 09:32:35;;;;;;;14.97;11.73;;;15.10;47.40;;;;;;5002745;28;20222;-67
2022/03/19 09:35:03;;;;;;;14.43;12.00;;;15.10;47.40;;;;;;5023714;28;20206;-67
2022/03/19 09:37:31;;;;;;;13.70;11.10;;;15.10;47.70;;;;;;5025456;28;20214;-67
2022/03/19 09:39:58;;;;;;;16.93;12.17;;;15.20;47.40;;;;;;5027105;28;20206;-67
2022/03/19 09:42:28;;;;;;;14.30;11.73;;;15.20;46.70;;;;;;5028717;28;20205;-67
2022/03/19 09:44:55;;;;;;;15.93;12.47;;;15.30;47.00;;;;;;5028961;28;20238;-67
2022/03/19 09:47:24;;;;;;;15.27;11.93;;;15.40;47.10;;;;;;5014287;28;20231;-67
2022/03/19 09:49:55;;;;;;;17.43;11.60;;;15.50;45.30;;;;;;5033094;28;20583;-68
2022/03/19 09:52:27;;;;;;;15.60;12.30;;;15.60;45.60;;;;;;4999986;28;20205;-68
2022/03/19 09:54:59;;;;;;;13.17;10.20;;;15.70;44.90;;;;;;5007336;28;20216;-68
2022/03/19 09:57:26;;;;;;;13.03;11.27;;;15.80;44.00;;;;;;5000782;28;20606;-68
2022/03/19 09:59:53;;;;;;;15.20;10.73;;;15.80;43.90;;;;;;5019792;28;20215;-68
2022/03/19 10:02:20;;;;;;;14.63;10.93;;;15.90;43.30;;;;;;5000685;28;20271;-68
2022/03/19 10:04:56;;;;;;;17.40;11.90;;;15.90;43.60;;;;;;5002646;28;20259;-68
2022/03/19 10:10:14;;;;;;;19.17;12.00;;;16.10;43.90;;;;;;5002828;28;20551;-68
2022/03/19 10:12:45;;;;;;;20.03;11.40;;;16.20;42.60;;;;;;5001422;28;20200;-68
2022/03/19 10:15:12;;;;;;;17.83;10.83;;;16.30;43.40;;;;;;5009028;28;20212;-68
2022/03/19 10:17:43;;;;;;;17.03;12.23;;;16.30;42.90;;;;;;4996092;28;20294;-68
2022/03/19 10:20:12;;;;;;;13.67;9.73;;;16.40;43.20;;;;;;4996771;28;20318;-68
2022/03/19 10:22:42;;;;;;;15.30;12.07;;;16.50;43.00;;;;;;5000948;28;20228;-68
2022/03/19 10:25:11;;;;;;;23.83;12.40;;;16.60;42.10;;;;;;4999033;28;20219;-68
2022/03/19 10:27:42;;;;;;;17.00;11.33;;;16.70;42.30;;;;;;5013053;28;20216;-68
2022/03/19 10:30:19;;;;;;;12.10;10.30;;;16.80;41.70;;;;;;5009416;28;20227;-68
2022/03/19 10:32:52;;;;;;;15.70;11.30;;;16.80;41.90;;;;;;4998876;28;20195;-68
2022/03/19 10:35:34;;;;;;;14.90;10.90;;;16.90;41.60;;;;;;5017310;28;20215;-68
2022/03/19 10:38:15;;;;;;;16.87;11.53;;;16.90;39.90;;;;;;5004367;28;20239;-68
2022/03/19 10:40:46;;;;;;;13.00;10.50;;;16.90;40.10;;;;;;5007491;28;20204;-68
2022/03/19 10:43:16;;;;;;;16.07;10.30;;;16.90;39.40;;;;;;5004656;28;20212;-68
2022/03/19 10:45:45;;;;;;;14.27;11.13;;;16.80;38.80;;;;;;5002982;28;20354;-68
2022/03/19 10:48:24;;;;;;;12.13;10.07;;;16.70;39.80;;;;;;5004605;28;20242;-68
2022/03/19 10:50:52;;;;;;;13.00;9.97;;;16.50;40.40;;;;;;5011785;28;20568;-68
2022/03/19 10:53:20;;;;;;;14.43;11.40;;;16.50;40.80;;;;;;5000438;28;20218;-68
2022/03/19 10:55:47;;;;;;;14.27;11.20;;;16.50;40.20;;;;;;4997969;28;20205;-68
2022/03/19 10:58:14;;;;;;;17.47;11.33;;;16.60;40.90;;;;;;4996936;28;20200;-68
2022/03/19 11:01:02;;;;;;;13.17;10.50;;;16.70;40.80;;;;;;5018463;28;20257;-68
2022/03/19 11:03:31;;;;;;;13.60;9.00;;;16.90;40.60;;;;;;5032022;28;20511;-68
2022/03/19 11:06:09;;;;;;;10.67;8.67;;;17.00;40.00;;;;;;5030458;28;20203;-68
2022/03/19 11:08:43;;;;;;;11.57;8.77;;;17.20;39.00;;;;;;5028333;28;20221;-68
2022/03/19 11:11:32;;;;;;;12.00;9.87;;;17.40;38.10;;;;;;5006695;28;20283;-68
2022/03/19 11:14:02;;;;;;;10.70;9.03;;;17.40;36.10;;;;;;5029007;28;20202;-68
2022/03/19 11:16:35;;;;;;;13.03;8.97;;;17.40;36.90;;;;;;5031348;28;20215;-68
2022/03/19 11:19:04;;;;;;;12.70;9.40;;;17.50;38.10;;;;;;5031485;28;20206;-68
2022/03/19 11:21:32;;;;;;;11.07;8.57;;;17.50;36.60;;;;;;5016433;28;20658;-68
2022/03/19 11:24:23;;;;;;;13.80;9.33;;;17.60;37.00;;;;;;5019378;28;20533;-68
2022/03/19 11:26:53;;;;;;;11.90;8.27;;;17.70;37.10;;;;;;5017871;28;20203;-68
2022/03/19 11:29:20;;;;;;;11.87;8.40;;;17.80;37.30;;;;;;5019115;28;20206;-68
2022/03/19 11:32:01;;;;;;;12.17;9.27;;;17.90;37.90;;;;;;5031807;28;20239;-67
2022/03/19 11:34:46;;;;;;;13.47;9.57;;;18.00;37.20;;;;;;5031404;28;20596;-67
2022/03/19 11:37:14;;;;;;;17.23;9.77;;;17.90;34.50;;;;;;5005445;28;20206;-67
2022/03/19 11:40:01;;;;;;;13.80;8.77;;;17.70;36.60;;;;;;5025843;28;20520;-67
2022/03/19 11:42:32;;;;;;;13.60;8.87;;;17.60;37.30;;;;;;5027352;28;20221;-67
2022/03/19 11:45:12;;;;;;;9.63;8.27;;;17.60;37.00;;;;;;5011859;28;20200;-67
2022/03/19 11:47:39;;;;;;;12.33;8.80;;;17.70;37.10;;;;;;5027142;28;20632;-67
2022/03/19 11:50:23;;;;;;;11.37;8.90;;;17.80;36.30;;;;;;5029877;28;20237;-68
2022/03/19 11:52:53;;;;;;;10.57;8.53;;;17.70;33.90;;;;;;5018783;28;20219;-68
2022/03/19 11:55:23;;;;;;;11.13;9.00;;;17.40;34.50;;;;;;5018009;28;20211;-68
2022/03/19 11:58:05;;;;;;;10.73;8.43;;;17.20;34.50;;;;;;5017065;28;20208;-68
2022/03/19 12:00:35;;;;;;;14.10;9.40;;;17.00;34.50;;;;;;5020384;28;20492;-68
2022/03/19 12:03:17;;;;;;;10.87;9.20;;;16.70;35.30;;;;;;5032462;28;20705;-68
2022/03/19 12:05:47;;;;;;;13.77;8.87;;;16.60;35.90;;;;;;5030866;28;20221;-68
2022/03/19 12:08:18;;;;;;;12.87;9.27;;;16.60;35.10;;;;;;5028208;28;20226;-68
2022/03/19 12:11:00;;;;;;;14.07;9.00;;;16.60;35.90;;;;;;5027906;28;20231;-68
2022/03/19 12:13:27;;;;;;;15.03;9.10;;;16.60;36.10;;;;;;5025984;28;20218;-68
2022/03/19 12:15:56;;;;;;;13.53;9.43;;;16.70;36.50;;;;;;5023422;28;20231;-68
2022/03/19 12:18:38;;;;;;;12.90;9.40;;;16.80;36.70;;;;;;5008027;28;20235;-68
2022/03/19 12:21:11;;;;;;;13.17;9.57;;;16.90;35.70;;;;;;5022066;28;20222;-68
2022/03/19 12:23:56;;;;;;;11.30;8.67;;;17.00;36.40;;;;;;5023840;28;20215;-68
2022/03/19 12:26:25;;;;;;;14.63;8.80;;;17.00;36.40;;;;;;5014890;28;20283;-68
2022/03/19 12:29:01;;;;;;;15.87;10.30;;;17.10;36.40;;;;;;5016165;28;20649;-68
2022/03/19 12:31:34;;;;;;;13.13;10.33;;;17.20;37.10;;;;;;5016857;28;20238;-68
2022/03/19 12:34:01;;;;;;;12.80;10.03;;;17.20;38.20;;;;;;5019363;28;20260;-68
2022/03/19 12:36:28;;;;;;;13.03;9.43;;;17.20;37.20;;;;;;5022197;28;20207;-68
2022/03/19 12:39:03;;;;;;;16.70;10.57;;;17.10;37.80;;;;;;5026406;28;20195;-68
2022/03/19 12:41:32;;;;;;;12.57;9.60;;;16.90;37.00;;;;;;5015332;28;20301;-68
2022/03/19 12:44:21;;;;;;;12.23;9.63;;;16.70;38.10;;;;;;5023437;28;20251;-68
2022/03/19 12:47:04;;;;;;;12.40;9.60;;;16.70;38.10;;;;;;5026473;28;20208;-68
2022/03/19 12:49:32;;;;;;;13.57;8.90;;;16.60;36.50;;;;;;5024905;28;20212;-68
2022/03/19 12:52:08;;;;;;;11.67;9.47;;;16.60;37.80;;;;;;5023172;28;20231;-68
2022/03/19 12:54:35;;;;;;;11.83;9.93;;;16.50;37.70;;;;;;5019055;28;20208;-68
2022/03/19 12:57:14;;;;;;;14.37;9.40;;;16.60;37.70;;;;;;5015402;28;20215;-68
2022/03/19 12:59:51;;;;;;;13.77;9.57;;;16.60;39.40;;;;;;5034005;28;20233;-68